createdAt,value
2018-11-28T00:02:29.965Z,33.20
2018-11-28T00:07:32.016Z,33.80
2018-11-28T00:12:34.489Z,31.80
2018-11-28T00:17:36.689Z,31.63
2018-11-28T00:22:38.861Z,32.33
2018-11-28T00:27:41.288Z,33.90
2018-11-28T00:32:43.457Z,31.73
2018-11-28T00:37:45.638Z,31.80
2018-11-28T00:42:47.792Z,31.23
2018-11-28T00:47:49.878Z,33.50
2018-11-28T00:52:51.972Z,33.50
2018-11-28T00:57:54.321Z,32.80
2018-11-28T01:02:56.586Z,32.50
2018-11-28T01:08:06.322Z,31.60
2018-11-28T01:13:08.635Z,33.30
2018-11-28T01:18:10.726Z,31.60
2018-11-28T01:23:12.756Z,31.13
2018-11-28T01:28:14.841Z,31.70
2018-11-28T01:33:16.850Z,32.70
2018-11-28T01:38:19.066Z,31.43
2018-11-28T01:43:21.459Z,32.83
2018-11-28T01:48:23.537Z,31.67
2018-11-28T01:53:25.539Z,33.00
2018-11-28T01:58:27.607Z,32.83
2018-11-28T02:03:29.663Z,32.53
2018-11-28T02:08:31.717Z,32.30
2018-11-28T02:13:34.030Z,33.77
2018-11-28T02:18:36.058Z,33.87
2018-11-28T02:23:38.331Z,34.50
2018-11-28T02:28:40.778Z,33.30
2018-11-28T02:33:43.418Z,33.87
2018-11-28T02:38:45.428Z,34.13
2018-11-28T02:43:47.733Z,33.47
2018-11-28T02:48:49.810Z,33.63
2018-11-28T02:53:52.150Z,33.10
2018-11-28T02:58:54.381Z,32.57
2018-11-28T03:03:56.459Z,32.23
2018-11-28T03:08:58.533Z,32.07
2018-11-28T03:14:00.595Z,30.83
2018-11-28T03:19:02.679Z,33.83
2018-11-28T03:24:05.251Z,31.10
2018-11-28T03:29:07.477Z,31.73
2018-11-28T03:34:09.625Z,32.23
2018-11-28T03:39:11.850Z,31.17
2018-11-28T03:44:14.082Z,34.63
2018-11-28T03:49:16.350Z,34.93
2018-11-28T03:54:18.389Z,34.73
2018-11-28T03:59:20.426Z,35.27
2018-11-28T04:04:22.481Z,32.73
2018-11-28T04:09:24.538Z,31.43
2018-11-28T04:14:26.591Z,32.20
2018-11-28T04:19:28.638Z,32.90
2018-11-28T04:24:30.793Z,33.17
2018-11-28T04:29:32.917Z,32.73
2018-11-28T04:34:35.259Z,31.87
2018-11-28T04:39:37.375Z,33.17
2018-11-28T04:44:39.438Z,33.23
2018-11-28T04:49:48.381Z,33.73
2018-11-28T04:54:57.344Z,33.27
2018-11-28T04:59:59.966Z,33.27
2018-11-28T05:05:02.019Z,33.80
2018-11-28T05:10:06.425Z,32.63
2018-11-28T05:15:10.719Z,34.73
2018-11-28T05:20:13.945Z,33.33
2018-11-28T05:25:19.650Z,34.63
2018-11-28T05:30:23.871Z,34.83
2018-11-28T05:35:30.610Z,33.03
2018-11-28T05:40:32.630Z,36.37
2018-11-28T05:45:34.766Z,32.83
2018-11-28T05:50:37.061Z,33.07
2018-11-28T05:55:39.101Z,32.37
2018-11-28T06:00:41.592Z,32.67
2018-11-28T06:05:43.646Z,32.17
2018-11-28T06:10:45.886Z,30.50
2018-11-28T06:15:47.937Z,33.37
2018-11-28T06:20:50.247Z,33.20
2018-11-28T06:25:52.427Z,35.63
2018-11-28T06:30:54.516Z,31.90
2018-11-28T06:35:56.616Z,32.73
2018-11-28T06:40:58.869Z,31.07
2018-11-28T06:46:00.963Z,32.40
2018-11-28T06:51:03.067Z,30.97
2018-11-28T06:56:12.394Z,30.13
2018-11-28T07:01:14.673Z,32.17
2018-11-28T07:06:16.705Z,31.63
2018-11-28T07:11:19.017Z,29.63
2018-11-28T07:16:21.093Z,30.63
2018-11-28T07:21:23.130Z,30.73
2018-11-28T07:26:25.166Z,33.03
2018-11-28T07:31:27.623Z,32.57
2018-11-28T07:36:29.666Z,33.53
2018-11-28T07:41:31.721Z,30.60
2018-11-28T07:46:33.761Z,31.83
2018-11-28T07:51:36.082Z,31.37
2018-11-28T07:56:38.118Z,32.27
2018-11-28T08:01:40.239Z,30.57
2018-11-28T08:06:42.289Z,31.17
2018-11-28T08:11:44.330Z,30.73
2018-11-28T08:16:46.408Z,29.83
2018-11-28T08:21:48.440Z,31.47
2018-11-28T08:26:50.834Z,28.97
2018-11-28T08:31:52.929Z,25.77
2018-11-28T08:36:54.981Z,27.63
2018-11-28T08:41:57.056Z,27.17
2018-11-28T08:46:59.094Z,25.97
2018-11-28T08:52:01.112Z,27.03
2018-11-28T08:57:03.193Z,24.83
2018-11-28T09:02:06.801Z,24.87
2018-11-28T09:07:08.840Z,27.57
2018-11-28T09:12:10.902Z,24.23
2018-11-28T09:17:15.266Z,24.70
2018-11-28T09:22:15.150Z,25.07
2018-11-28T09:27:17.207Z,23.60
2018-11-28T09:32:20.252Z,24.40
2018-11-28T09:37:23.037Z,23.20
2018-11-28T09:42:25.317Z,23.30
2018-11-28T09:47:27.359Z,21.57
2018-11-28T09:52:29.409Z,22.40
2018-11-28T09:57:31.481Z,20.87
2018-11-28T10:02:33.530Z,20.47
2018-11-28T10:07:35.602Z,20.33
2018-11-28T10:12:37.677Z,19.70
2018-11-28T10:17:39.871Z,19.33
2018-11-28T10:22:42.089Z,19.37
2018-11-28T10:27:46.237Z,19.80
2018-11-28T10:32:48.887Z,20.00
2018-11-28T10:37:51.014Z,18.50
2018-11-28T10:42:56.184Z,18.70
2018-11-28T10:47:58.621Z,19.10
2018-11-28T10:53:00.675Z,19.23
2018-11-28T10:58:04.527Z,18.63
2018-11-28T11:03:12.629Z,17.10
2018-11-28T11:08:20.366Z,17.50
2018-11-28T11:13:28.199Z,18.50
2018-11-28T11:18:30.288Z,19.00
2018-11-28T11:23:32.347Z,18.50
2018-11-28T11:28:34.751Z,20.00
2018-11-28T11:33:36.882Z,19.93
2018-11-28T11:38:39.137Z,19.17
2018-11-28T11:43:41.258Z,19.67
2018-11-28T11:48:43.363Z,19.57
2018-11-28T11:53:45.442Z,20.13
2018-11-28T11:58:47.478Z,19.57
2018-11-28T12:03:49.559Z,19.63
2018-11-28T12:08:51.833Z,20.00
2018-11-28T12:13:53.902Z,19.27
2018-11-28T12:18:55.947Z,19.53
2018-11-28T12:23:58.006Z,19.93
2018-11-28T12:29:00.095Z,18.43
2018-11-28T12:34:02.182Z,19.60
2018-11-28T12:39:08.170Z,19.97
2018-11-28T12:44:10.250Z,20.90
2018-11-28T12:49:12.571Z,19.13
2018-11-28T12:54:14.626Z,20.43
2018-11-28T12:59:16.670Z,19.70
2018-11-28T13:04:18.773Z,18.77
2018-11-28T13:09:20.810Z,20.30
2018-11-28T13:14:22.835Z,19.20
2018-11-28T13:19:24.857Z,19.53
2018-11-28T13:24:26.906Z,19.03
2018-11-28T13:29:29.789Z,19.13
2018-11-28T13:34:31.857Z,19.10
2018-11-28T13:39:34.258Z,19.33
2018-11-28T13:44:36.301Z,20.53
2018-11-28T13:49:38.317Z,17.33
2018-11-28T13:55:36.898Z,17.57
2018-11-28T13:59:42.581Z,17.17
2018-11-28T14:04:44.472Z,17.83
2018-11-28T14:09:46.542Z,17.17
2018-11-28T14:14:48.564Z,17.37
2018-11-28T14:19:50.619Z,17.10
2018-11-28T14:24:53.013Z,16.67
2018-11-28T14:29:55.211Z,15.53
2018-11-28T14:34:57.261Z,16.73
2018-11-28T14:39:59.646Z,17.47
2018-11-28T14:45:01.719Z,14.90
2018-11-28T14:50:06.461Z,16.20
2018-11-28T14:55:10.941Z,17.67
2018-11-28T15:00:14.824Z,17.47
2018-11-28T15:05:22.487Z,17.00
2018-11-28T15:10:39.814Z,17.53
2018-11-28T15:15:41.880Z,19.13
2018-11-28T15:20:44.160Z,18.47
2018-11-28T15:25:46.243Z,20.10
2018-11-28T15:30:48.355Z,18.50
2018-11-28T15:35:50.645Z,19.83
2018-11-28T15:40:53.025Z,19.70
2018-11-28T15:45:55.419Z,19.97
2018-11-28T15:50:57.471Z,20.63
2018-11-28T15:55:59.540Z,19.77
2018-11-28T16:01:01.753Z,20.77
2018-11-28T16:06:04.043Z,21.50
2018-11-28T16:11:08.588Z,21.40
2018-11-28T16:16:10.627Z,20.63
2018-11-28T16:21:12.724Z,20.07
2018-11-28T16:26:14.773Z,21.30
2018-11-28T16:31:17.646Z,19.90
2018-11-28T16:36:26.833Z,22.30
2018-11-28T16:41:29.185Z,20.50
2018-11-28T16:46:31.372Z,20.57
2018-11-28T16:51:33.381Z,21.40
2018-11-28T16:56:35.442Z,21.57
2018-11-28T17:01:37.739Z,21.67
2018-11-28T17:06:39.833Z,21.80
2018-11-28T17:11:41.861Z,22.50
2018-11-28T17:16:44.070Z,23.37
2018-11-28T17:21:46.134Z,23.03
2018-11-28T17:26:48.193Z,22.00
2018-11-28T17:31:50.289Z,22.00
2018-11-28T17:36:53.072Z,23.60
2018-11-28T17:41:55.149Z,20.40
2018-11-28T17:46:57.173Z,24.67
2018-11-28T17:51:59.217Z,23.03
2018-11-28T17:57:01.289Z,21.97
2018-11-28T18:02:03.365Z,23.00
2018-11-28T18:07:05.484Z,22.53
2018-11-28T18:12:07.621Z,20.60
2018-11-28T18:17:09.637Z,22.13
2018-11-28T18:22:11.685Z,21.67
2018-11-28T18:27:13.747Z,21.03
2018-11-28T18:32:15.914Z,22.60
2018-11-28T18:37:18.125Z,32.13
2018-11-28T18:42:20.601Z,29.63
2018-11-28T18:47:22.642Z,30.80
2018-11-28T18:52:24.674Z,27.03
2018-11-28T18:57:26.749Z,22.53
2018-11-28T19:02:28.789Z,22.53
2018-11-28T19:07:30.822Z,22.13
2018-11-28T19:12:33.350Z,35.30
2018-11-28T19:17:35.414Z,31.37
2018-11-28T19:22:37.409Z,26.77
2018-11-28T19:27:39.542Z,23.33
2018-11-28T19:32:41.616Z,26.23
2018-11-28T19:37:43.677Z,23.90
2018-11-28T19:42:45.782Z,23.10
2018-11-28T19:47:47.821Z,21.93
2018-11-28T19:52:50.022Z,22.80
2018-11-28T19:58:06.741Z,22.50
2018-11-28T20:03:11.465Z,22.07
2018-11-28T20:08:14.439Z,21.27
2018-11-28T20:13:16.667Z,23.30
2018-11-28T20:18:18.774Z,22.23
2018-11-28T20:23:20.805Z,23.20
2018-11-28T20:28:23.357Z,23.33
2018-11-28T20:33:25.779Z,23.20
2018-11-28T20:38:30.931Z,22.87
2018-11-28T20:43:33.035Z,23.27
2018-11-28T20:48:35.855Z,23.37
2018-11-28T20:53:38.245Z,23.47
2018-11-28T20:58:40.319Z,23.73
2018-11-28T21:03:42.874Z,23.87
2018-11-28T21:08:45.006Z,22.63
2018-11-28T21:13:47.028Z,22.73
2018-11-28T21:18:50.018Z,23.87
2018-11-28T21:23:52.100Z,22.83
2018-11-28T21:28:54.486Z,24.17
2018-11-28T21:33:56.534Z,21.93
2018-11-28T21:38:58.862Z,23.60
2018-11-28T21:44:00.930Z,21.73
2018-11-28T21:49:03.417Z,22.90
2018-11-28T21:54:05.525Z,23.50
2018-11-28T21:59:07.578Z,22.63
2018-11-28T22:04:09.586Z,23.73
2018-11-28T22:09:11.868Z,23.27
2018-11-28T22:14:14.251Z,22.97
2018-11-28T22:19:16.305Z,23.70
2018-11-28T22:24:18.821Z,24.93
2018-11-28T22:29:21.211Z,22.50
2018-11-28T22:34:23.260Z,23.17
2018-11-28T22:39:25.296Z,23.27
2018-11-28T22:44:28.218Z,23.27
2018-11-28T22:49:30.269Z,23.77
2018-11-28T22:54:32.330Z,22.63
2018-11-28T22:59:34.368Z,22.33
2018-11-28T23:04:36.410Z,22.83
2018-11-28T23:09:38.494Z,23.33
2018-11-28T23:14:40.606Z,22.97
2018-11-28T23:19:42.652Z,21.47
2018-11-28T23:24:45.662Z,22.10
2018-11-28T23:29:47.726Z,18.97
2018-11-28T23:34:49.872Z,19.07
2018-11-28T23:39:52.013Z,18.97
2018-11-28T23:44:54.097Z,20.30
2018-11-28T23:49:56.131Z,19.20
2018-11-28T23:54:58.206Z,21.07
